createdAt,value
2022-12-22T00:01:28.898Z,1.40
2022-12-22T00:03:19.115Z,1.32
2022-12-22T00:05:09.306Z,1.31
2022-12-22T00:06:59.548Z,1.31
2022-12-22T00:08:49.755Z,1.30
2022-12-22T00:10:40.674Z,1.27
2022-12-22T00:12:32.365Z,1.27
2022-12-22T00:14:22.453Z,1.23
2022-12-22T00:16:12.522Z,1.20
2022-12-22T00:18:02.741Z,1.17
2022-12-22T00:19:52.825Z,1.13
2022-12-22T00:21:43.080Z,1.07
2022-12-22T00:23:33.157Z,1.03
2022-12-22T00:25:23.339Z,1.01
2022-12-22T00:27:13.693Z,0.98
2022-12-22T00:29:03.766Z,0.93
2022-12-22T00:30:54.228Z,0.88
2022-12-22T00:32:45.436Z,0.87
2022-12-22T00:34:37.120Z,0.87
2022-12-22T00:36:28.269Z,0.88
2022-12-22T00:38:18.667Z,0.90
2022-12-22T00:40:09.120Z,0.92
2022-12-22T00:41:59.340Z,0.97
2022-12-22T00:43:49.510Z,0.98
2022-12-22T00:45:39.512Z,0.97
2022-12-22T00:47:32.712Z,0.98
2022-12-22T00:49:22.957Z,0.99
2022-12-22T00:51:13.111Z,1.00
2022-12-22T00:53:03.184Z,1.00
2022-12-22T00:54:53.310Z,1.01
2022-12-22T00:56:43.510Z,1.03
2022-12-22T00:58:34.244Z,1.04
2022-12-22T01:00:25.358Z,1.02
2022-12-22T01:02:15.945Z,0.98
2022-12-22T01:04:06.218Z,0.96
2022-12-22T01:05:56.589Z,0.91
2022-12-22T01:07:46.719Z,0.85
2022-12-22T01:09:37.065Z,0.82
2022-12-22T01:11:27.476Z,0.80
2022-12-22T01:13:17.783Z,0.77
2022-12-22T01:15:07.954Z,0.78
2022-12-22T01:16:57.811Z,0.74
2022-12-22T01:18:47.854Z,0.73
2022-12-22T01:20:38.129Z,0.73
2022-12-22T01:22:29.352Z,0.79
2022-12-22T01:24:19.845Z,0.82
2022-12-22T01:26:09.824Z,0.86
2022-12-22T01:27:59.748Z,0.88
2022-12-22T01:29:49.914Z,0.82
2022-12-22T01:31:44.645Z,0.82
2022-12-22T01:33:34.704Z,0.83
2022-12-22T01:35:25.648Z,0.88
2022-12-22T01:37:15.866Z,0.88
2022-12-22T01:39:05.869Z,0.88
2022-12-22T01:40:56.233Z,0.87
2022-12-22T01:42:46.446Z,0.86
2022-12-22T01:44:37.182Z,0.87
2022-12-22T01:46:45.862Z,0.88
2022-12-22T01:48:39.932Z,0.87
2022-12-22T01:50:30.678Z,0.87
2022-12-22T01:52:21.049Z,0.92
2022-12-22T01:54:11.070Z,0.91
2022-12-22T01:56:01.329Z,0.90
2022-12-22T01:57:51.599Z,0.93
2022-12-22T01:59:41.913Z,0.91
2022-12-22T02:01:32.224Z,0.89
2022-12-22T02:03:22.803Z,0.87
2022-12-22T02:05:13.363Z,0.85
2022-12-22T02:07:03.672Z,0.83
2022-12-22T02:08:54.419Z,0.79
2022-12-22T02:10:47.139Z,0.75
2022-12-22T02:13:15.737Z,0.67
2022-12-22T02:15:09.015Z,0.62
2022-12-22T02:17:03.336Z,0.58
2022-12-22T02:18:56.139Z,0.59
2022-12-22T02:20:57.651Z,0.56
2022-12-22T02:23:07.689Z,0.50
2022-12-22T02:24:59.480Z,0.47
2022-12-22T02:26:53.438Z,0.49
2022-12-22T02:28:43.894Z,0.49
2022-12-22T02:30:34.055Z,0.50
2022-12-22T02:32:25.073Z,0.48
2022-12-22T02:34:15.207Z,0.46
2022-12-22T02:36:05.099Z,0.43
2022-12-22T02:37:58.169Z,0.37
2022-12-22T02:39:48.241Z,0.35
2022-12-22T02:41:38.342Z,0.33
2022-12-22T02:43:34.812Z,0.34
2022-12-22T02:45:31.213Z,0.35
2022-12-22T02:47:24.677Z,0.38
2022-12-22T02:49:16.278Z,0.38
2022-12-22T02:51:09.360Z,0.36
2022-12-22T02:52:59.839Z,0.35
2022-12-22T02:54:49.683Z,0.32
2022-12-22T02:56:39.723Z,0.28
2022-12-22T02:58:30.511Z,0.25
2022-12-22T03:00:20.630Z,0.25
2022-12-22T03:02:10.768Z,0.24
2022-12-22T03:04:00.802Z,0.17
2022-12-22T03:05:51.033Z,0.13
2022-12-22T03:07:41.052Z,0.13
2022-12-22T03:09:31.084Z,0.16
2022-12-22T03:11:21.381Z,0.13
2022-12-22T03:13:12.035Z,0.15
2022-12-22T03:15:02.478Z,0.17
2022-12-22T03:16:52.870Z,0.23
2022-12-22T03:18:42.795Z,0.26
2022-12-22T03:20:33.024Z,0.29
2022-12-22T03:22:23.367Z,0.29
2022-12-22T03:24:13.598Z,0.24
2022-12-22T03:25:52.317Z,0.23
2022-12-22T03:27:23.943Z,0.22
2022-12-22T03:28:57.700Z,0.21
2022-12-22T03:30:29.277Z,0.22
2022-12-22T03:32:00.901Z,0.28
2022-12-22T03:33:32.581Z,0.34
2022-12-22T03:35:04.469Z,0.32
2022-12-22T03:36:36.075Z,0.29
2022-12-22T03:38:07.652Z,0.33
2022-12-22T03:39:39.399Z,0.34
2022-12-22T03:41:30.886Z,0.30
2022-12-22T03:43:21.077Z,0.28
2022-12-22T03:45:11.421Z,0.27
2022-12-22T03:46:43.074Z,0.24
2022-12-22T03:48:14.647Z,0.18
2022-12-22T03:49:46.256Z,0.11
2022-12-22T03:51:17.943Z,0.08
2022-12-22T03:52:49.585Z,0.05
2022-12-22T03:54:24.394Z,-0.01
2022-12-22T03:55:56.074Z,-0.06
2022-12-22T03:57:27.637Z,-0.08
2022-12-22T03:58:59.279Z,-0.11
2022-12-22T04:00:30.836Z,-0.15
2022-12-22T04:02:02.701Z,-0.18
2022-12-22T04:03:34.571Z,-0.18
2022-12-22T04:05:06.268Z,-0.20
2022-12-22T04:06:37.969Z,-0.21
2022-12-22T04:08:09.499Z,-0.21
2022-12-22T04:10:01.016Z,-0.22
2022-12-22T04:11:51.155Z,-0.21
2022-12-22T04:13:22.729Z,-0.24
2022-12-22T04:14:54.419Z,-0.23
2022-12-22T04:16:26.095Z,-0.26
2022-12-22T04:17:57.977Z,-0.26
2022-12-22T04:19:29.904Z,-0.27
2022-12-22T04:21:01.488Z,-0.23
2022-12-22T04:22:33.098Z,-0.25
2022-12-22T04:24:05.213Z,-0.21
2022-12-22T04:25:36.875Z,-0.21
2022-12-22T04:27:08.510Z,-0.21
2022-12-22T04:28:40.145Z,-0.22
2022-12-22T04:30:12.038Z,-0.21
2022-12-22T04:31:43.662Z,-0.24
2022-12-22T04:33:15.313Z,-0.21
2022-12-22T04:34:46.838Z,-0.19
2022-12-22T04:36:18.677Z,-0.19
2022-12-22T04:37:50.335Z,-0.22
2022-12-22T04:39:22.425Z,-0.23
2022-12-22T04:40:54.840Z,-0.24
2022-12-22T04:42:27.053Z,-0.26
2022-12-22T04:43:58.836Z,-0.26
2022-12-22T04:45:30.380Z,-0.28
2022-12-22T04:47:01.997Z,-0.29
2022-12-22T04:48:33.564Z,-0.29
2022-12-22T04:50:05.390Z,-0.31
2022-12-22T04:51:36.964Z,-0.30
2022-12-22T04:53:09.147Z,-0.34
2022-12-22T04:54:40.763Z,-0.36
2022-12-22T04:56:12.485Z,-0.38
2022-12-22T04:57:44.476Z,-0.42
2022-12-22T04:59:16.019Z,-0.42
2022-12-22T05:00:47.592Z,-0.42
2022-12-22T05:02:19.569Z,-0.40
2022-12-22T05:03:51.476Z,-0.43
2022-12-22T05:05:23.101Z,-0.44
2022-12-22T05:06:54.968Z,-0.46
2022-12-22T05:08:26.475Z,-0.49
2022-12-22T05:09:58.007Z,-0.52
2022-12-22T05:11:29.671Z,-0.54
2022-12-22T05:13:01.399Z,-0.54
2022-12-22T05:14:33.037Z,-0.58
2022-12-22T05:16:11.588Z,-0.52
2022-12-22T05:17:43.236Z,-0.49
2022-12-22T05:19:14.912Z,-0.45
2022-12-22T05:20:46.665Z,-0.40
2022-12-22T05:22:18.343Z,-0.41
2022-12-22T05:23:50.254Z,-0.41
2022-12-22T05:25:21.796Z,-0.44
2022-12-22T05:26:53.740Z,-0.51
2022-12-22T05:28:25.370Z,-0.54
2022-12-22T05:29:56.961Z,-0.55
2022-12-22T05:31:28.649Z,-0.56
2022-12-22T05:33:00.462Z,-0.56
2022-12-22T05:34:32.091Z,-0.61
2022-12-22T05:36:03.837Z,-0.63
2022-12-22T05:37:35.584Z,-0.69
2022-12-22T05:39:07.104Z,-0.72
2022-12-22T05:40:38.807Z,-0.75
2022-12-22T05:42:11.295Z,-0.72
2022-12-22T05:43:42.996Z,-0.68
2022-12-22T05:45:15.641Z,-0.70
2022-12-22T05:46:47.220Z,-0.71
2022-12-22T05:48:24.257Z,-0.72
2022-12-22T05:49:59.076Z,-0.71
2022-12-22T05:51:30.644Z,-0.69
2022-12-22T05:53:02.279Z,-0.66
2022-12-22T05:54:33.947Z,-0.64
2022-12-22T05:56:05.720Z,-0.65
2022-12-22T05:57:37.627Z,-0.66
2022-12-22T05:59:10.621Z,-0.67
2022-12-22T06:00:42.261Z,-0.65
2022-12-22T06:02:14.043Z,-0.63
2022-12-22T06:03:45.895Z,-0.64
2022-12-22T06:05:17.659Z,-0.66
2022-12-22T06:06:49.262Z,-0.66
2022-12-22T06:08:20.912Z,-0.69
2022-12-22T06:09:52.525Z,-0.73
2022-12-22T06:11:24.118Z,-0.73
2022-12-22T06:12:55.724Z,-0.73
2022-12-22T06:14:27.329Z,-0.71
2022-12-22T06:15:59.023Z,-0.70
2022-12-22T06:17:30.678Z,-0.66
2022-12-22T06:19:02.261Z,-0.61
2022-12-22T06:20:33.898Z,-0.54
2022-12-22T06:22:05.529Z,-0.51
2022-12-22T06:23:37.195Z,-0.46
2022-12-22T06:25:13.602Z,-0.33
2022-12-22T06:26:49.008Z,-0.21
2022-12-22T06:28:20.559Z,-0.09
2022-12-22T06:29:52.091Z,0.06
2022-12-22T06:31:24.063Z,0.18
2022-12-22T06:32:55.646Z,0.30
2022-12-22T06:34:27.354Z,0.43
2022-12-22T06:35:59.733Z,0.56
2022-12-22T06:37:31.570Z,0.72
2022-12-22T06:39:03.250Z,0.86
2022-12-22T06:40:34.799Z,0.93
2022-12-22T06:42:25.142Z,1.02
2022-12-22T06:43:56.791Z,1.08
2022-12-22T06:45:28.675Z,1.20
2022-12-22T06:47:00.280Z,1.32
2022-12-22T06:48:31.888Z,1.44
2022-12-22T06:50:03.649Z,1.58
2022-12-22T06:51:35.300Z,1.72
2022-12-22T06:53:06.915Z,1.90
2022-12-22T06:54:38.526Z,2.06
2022-12-22T06:56:10.673Z,2.19
2022-12-22T06:57:42.644Z,2.31
2022-12-22T06:59:14.733Z,2.42
2022-12-22T07:00:48.835Z,2.47
2022-12-22T07:02:20.588Z,2.54
2022-12-22T07:03:52.534Z,2.55
2022-12-22T07:05:24.180Z,2.54
2022-12-22T07:06:56.026Z,2.50
2022-12-22T07:08:27.650Z,2.50
2022-12-22T07:09:59.187Z,2.50
2022-12-22T07:11:30.817Z,2.49
2022-12-22T07:13:19.560Z,2.52
2022-12-22T07:14:51.323Z,2.51
2022-12-22T07:16:22.957Z,2.52
2022-12-22T07:17:54.568Z,2.49
2022-12-22T07:19:26.151Z,2.55
2022-12-22T07:20:57.762Z,2.67
2022-12-22T07:22:30.816Z,2.87
2022-12-22T07:24:02.660Z,3.03
2022-12-22T07:25:34.243Z,3.14
2022-12-22T07:27:05.846Z,3.24
2022-12-22T07:28:38.002Z,3.27
2022-12-22T07:30:10.015Z,3.19
2022-12-22T07:31:41.736Z,3.08
2022-12-22T07:33:13.281Z,3.04
2022-12-22T07:34:45.194Z,3.05
2022-12-22T07:36:17.887Z,3.10
2022-12-22T07:37:49.606Z,3.16
2022-12-22T07:39:21.206Z,3.08
2022-12-22T07:41:01.280Z,3.10
2022-12-22T07:42:45.656Z,3.08
2022-12-22T07:44:17.238Z,3.12
2022-12-22T07:45:49.005Z,3.20
2022-12-22T07:47:20.822Z,3.23
2022-12-22T07:49:11.335Z,3.30
2022-12-22T07:50:44.566Z,3.37
2022-12-22T07:52:16.235Z,3.45
2022-12-22T07:53:47.910Z,3.50
2022-12-22T07:55:19.818Z,3.57
2022-12-22T07:56:51.472Z,3.65
2022-12-22T07:58:23.085Z,3.73
2022-12-22T07:59:54.939Z,3.79
2022-12-22T08:01:26.668Z,3.88
2022-12-22T08:02:58.525Z,3.92
2022-12-22T08:04:30.588Z,3.98
2022-12-22T08:06:04.446Z,4.08
2022-12-22T08:07:36.181Z,4.18
2022-12-22T08:09:08.023Z,4.28
2022-12-22T08:10:39.724Z,4.32
2022-12-22T08:12:11.437Z,4.44
2022-12-22T08:13:44.032Z,4.55
2022-12-22T08:15:15.548Z,4.68
2022-12-22T08:16:47.315Z,4.73
2022-12-22T08:18:19.189Z,4.75
2022-12-22T08:19:50.913Z,4.75
2022-12-22T08:21:22.914Z,4.77
2022-12-22T08:22:54.684Z,4.82
2022-12-22T08:24:26.569Z,4.81
2022-12-22T08:26:16.604Z,4.81
2022-12-22T08:27:48.948Z,4.93
2022-12-22T08:29:21.896Z,5.00
2022-12-22T08:30:53.726Z,5.01
2022-12-22T08:32:25.498Z,5.03
2022-12-22T08:33:57.499Z,5.08
2022-12-22T08:35:29.160Z,5.07
2022-12-22T08:37:01.060Z,5.12
2022-12-22T08:38:32.989Z,5.21
2022-12-22T08:40:05.326Z,5.26
2022-12-22T08:41:52.670Z,5.31
2022-12-22T08:43:25.145Z,5.32
2022-12-22T08:44:56.788Z,5.31
2022-12-22T08:46:29.847Z,5.36
2022-12-22T08:48:01.599Z,5.44
2022-12-22T08:49:33.476Z,5.46
2022-12-22T08:51:05.255Z,5.44
2022-12-22T08:52:37.377Z,5.54
2022-12-22T08:54:09.054Z,5.67
2022-12-22T08:55:40.930Z,5.79
2022-12-22T08:57:12.627Z,5.79
2022-12-22T08:58:44.333Z,5.80
2022-12-22T09:00:16.180Z,5.81
2022-12-22T09:01:51.432Z,5.86
2022-12-22T09:03:23.179Z,6.00
2022-12-22T09:04:54.709Z,6.17
2022-12-22T09:06:27.744Z,6.33
2022-12-22T09:08:02.894Z,6.46
2022-12-22T09:09:34.729Z,6.57
2022-12-22T09:11:06.352Z,6.75
2022-12-22T09:12:38.149Z,6.89
2022-12-22T09:14:10.149Z,6.99
2022-12-22T09:15:41.799Z,7.12
2022-12-22T09:17:13.496Z,7.23
2022-12-22T09:18:45.682Z,7.26
2022-12-22T09:20:17.410Z,7.18
2022-12-22T09:21:49.130Z,7.15
2022-12-22T09:23:21.217Z,7.24
2022-12-22T09:24:53.168Z,7.27
2022-12-22T09:26:25.352Z,7.30
2022-12-22T09:27:56.901Z,7.27
2022-12-22T09:29:28.583Z,7.24
2022-12-22T09:31:00.499Z,7.15
2022-12-22T09:32:34.673Z,7.19
2022-12-22T09:34:08.598Z,7.28
2022-12-22T09:35:42.258Z,7.34
2022-12-22T09:37:16.800Z,7.45
2022-12-22T09:38:48.522Z,7.56
2022-12-22T09:40:22.287Z,7.63
2022-12-22T09:41:55.868Z,7.64
2022-12-22T09:43:29.000Z,7.74
2022-12-22T09:45:00.634Z,7.82
2022-12-22T09:46:33.377Z,7.95
2022-12-22T09:48:05.065Z,7.98
2022-12-22T09:49:36.903Z,7.98
2022-12-22T09:51:10.938Z,8.01
2022-12-22T09:52:48.717Z,8.01
2022-12-22T09:54:20.301Z,8.00
2022-12-22T09:55:51.982Z,8.05
2022-12-22T09:57:25.092Z,8.09
2022-12-22T09:58:57.197Z,8.12
2022-12-22T10:00:30.002Z,8.17
2022-12-22T10:02:11.742Z,8.20
2022-12-22T10:04:04.241Z,8.25
2022-12-22T10:05:54.414Z,8.27
2022-12-22T10:07:26.195Z,8.35
2022-12-22T10:08:57.829Z,8.37
2022-12-22T10:10:30.339Z,8.26
2022-12-22T10:12:03.345Z,8.32
2022-12-22T10:13:35.046Z,8.40
2022-12-22T10:15:07.618Z,8.35
2022-12-22T10:16:39.419Z,8.42
2022-12-22T10:18:11.331Z,8.45
2022-12-22T10:19:43.463Z,8.59
2022-12-22T10:21:15.177Z,8.73
2022-12-22T10:22:47.299Z,8.86
2022-12-22T10:24:28.997Z,9.00
2022-12-22T10:27:59.009Z,9.05
2022-12-22T10:29:30.586Z,9.09
2022-12-22T10:31:17.355Z,9.20
2022-12-22T10:33:07.861Z,9.35
2022-12-22T10:34:52.778Z,9.46
2022-12-22T10:36:28.159Z,9.53
2022-12-22T10:37:59.812Z,9.60
2022-12-22T10:39:32.557Z,9.67
2022-12-22T10:41:07.097Z,9.72
2022-12-22T10:42:38.648Z,9.78
2022-12-22T10:44:11.592Z,9.86
2022-12-22T10:45:43.367Z,9.80
2022-12-22T10:47:18.011Z,9.81
2022-12-22T10:48:49.861Z,9.82
2022-12-22T10:50:21.650Z,9.90
2022-12-22T10:52:13.579Z,10.02
2022-12-22T10:53:49.319Z,10.06
2022-12-22T10:55:22.463Z,10.18
2022-12-22T10:57:04.908Z,10.21
2022-12-22T10:58:49.607Z,10.22
2022-12-22T11:00:28.326Z,10.27
2022-12-22T11:02:38.568Z,10.32
2022-12-22T11:04:23.829Z,10.46
2022-12-22T11:05:55.416Z,10.43
2022-12-22T11:07:27.159Z,10.50
2022-12-22T11:09:31.308Z,10.61
2022-12-22T11:10:57.809Z,10.54
2022-12-22T11:12:29.493Z,10.56
2022-12-22T11:14:19.484Z,10.57
2022-12-22T11:16:00.259Z,10.57
2022-12-22T11:17:50.567Z,10.65
2022-12-22T11:19:25.184Z,10.75
2022-12-22T11:21:02.125Z,10.97
2022-12-22T11:22:36.497Z,11.10
2022-12-22T11:24:08.280Z,11.12
2022-12-22T11:25:40.008Z,11.24
2022-12-22T11:27:24.077Z,11.42
2022-12-22T11:29:04.948Z,11.59
2022-12-22T11:30:36.539Z,11.84
2022-12-22T11:32:27.218Z,12.06
2022-12-22T11:34:20.985Z,12.24
2022-12-22T11:35:53.280Z,12.30
2022-12-22T11:37:25.013Z,12.35
2022-12-22T11:39:03.918Z,12.45
2022-12-22T11:40:42.306Z,12.60
2022-12-22T11:42:32.669Z,12.81
2022-12-22T11:44:10.540Z,13.04
2022-12-22T11:46:00.306Z,13.24
2022-12-22T11:47:50.775Z,13.44
2022-12-22T11:49:25.484Z,13.64
2022-12-22T11:51:08.014Z,13.68
2022-12-22T11:52:45.711Z,13.63
2022-12-22T11:54:39.954Z,13.63
2022-12-22T11:56:21.363Z,13.54
2022-12-22T11:57:53.012Z,13.53
2022-12-22T11:59:42.814Z,13.58
2022-12-22T12:01:26.157Z,13.60
2022-12-22T12:03:04.018Z,13.67
2022-12-22T12:04:41.920Z,13.66
2022-12-22T12:06:33.921Z,13.48
2022-12-22T12:08:17.494Z,13.42
2022-12-22T12:09:48.987Z,13.47
2022-12-22T12:11:26.274Z,13.52
2022-12-22T12:12:57.912Z,13.55
2022-12-22T12:14:32.117Z,13.51
2022-12-22T12:16:10.035Z,13.46
2022-12-22T12:17:50.740Z,13.40
2022-12-22T12:19:32.618Z,13.44
2022-12-22T12:21:22.774Z,13.48
2022-12-22T12:23:12.982Z,13.56
2022-12-22T12:24:51.132Z,13.68
2022-12-22T12:26:24.075Z,13.81
2022-12-22T12:28:00.104Z,13.92
2022-12-22T12:29:38.253Z,13.97
2022-12-22T12:31:11.340Z,14.04
2022-12-22T12:32:43.229Z,14.13
2022-12-22T12:34:15.223Z,14.22
2022-12-22T12:35:49.408Z,14.26
2022-12-22T12:37:26.633Z,14.32
2022-12-22T12:39:10.928Z,14.38
2022-12-22T12:40:42.422Z,14.52
2022-12-22T12:42:22.221Z,14.59
2022-12-22T12:43:55.220Z,14.62
2022-12-22T12:45:35.916Z,14.64
2022-12-22T12:47:26.629Z,14.68
2022-12-22T12:49:01.042Z,14.77
2022-12-22T12:50:33.730Z,14.75
2022-12-22T12:52:08.888Z,14.64
2022-12-22T12:53:40.394Z,14.62
2022-12-22T12:55:24.310Z,14.68
2022-12-22T12:57:08.313Z,14.70
2022-12-22T12:58:39.972Z,14.72
2022-12-22T13:00:30.339Z,14.73
2022-12-22T13:02:02.230Z,14.71
2022-12-22T13:04:02.377Z,14.70
2022-12-22T13:05:48.967Z,14.61
2022-12-22T13:07:40.654Z,14.37
2022-12-22T13:11:09.404Z,14.01
2022-12-22T13:12:48.533Z,13.97
2022-12-22T13:14:38.602Z,13.97
2022-12-22T13:16:16.541Z,13.95
2022-12-22T13:17:48.715Z,13.99
2022-12-22T13:19:23.540Z,14.05
2022-12-22T13:21:18.569Z,13.95
2022-12-22T13:22:52.035Z,13.89
2022-12-22T13:24:29.319Z,13.83
2022-12-22T13:26:02.029Z,13.79
2022-12-22T13:27:33.733Z,13.78
2022-12-22T13:29:09.232Z,13.74
2022-12-22T13:30:41.125Z,13.68
2022-12-22T13:32:16.814Z,13.55
2022-12-22T13:33:49.391Z,13.41
2022-12-22T13:35:43.066Z,13.36
2022-12-22T13:37:13.082Z,13.36
2022-12-22T13:38:44.766Z,13.34
2022-12-22T13:40:17.619Z,13.38
2022-12-22T13:41:49.497Z,13.38
2022-12-22T13:43:21.211Z,13.34
2022-12-22T13:44:52.776Z,13.33
2022-12-22T13:46:24.750Z,13.28
2022-12-22T13:47:57.937Z,13.14
2022-12-22T13:49:59.201Z,13.07
2022-12-22T13:51:24.958Z,13.07
2022-12-22T13:52:56.679Z,13.08
2022-12-22T13:54:35.752Z,13.08
2022-12-22T13:56:08.530Z,13.10
2022-12-22T13:57:40.553Z,13.16
2022-12-22T13:59:30.365Z,13.24
2022-12-22T14:01:02.906Z,13.28
2022-12-22T14:02:34.737Z,13.30
2022-12-22T14:04:08.000Z,13.32
2022-12-22T14:05:39.829Z,13.30
2022-12-22T14:07:12.211Z,13.31
2022-12-22T14:08:43.929Z,13.31
2022-12-22T14:10:15.617Z,13.36
2022-12-22T14:12:02.491Z,13.38
2022-12-22T14:13:34.698Z,13.38
2022-12-22T14:15:07.930Z,13.37
2022-12-22T14:16:43.228Z,13.40
2022-12-22T14:18:18.101Z,13.40
2022-12-22T14:19:59.105Z,13.38
2022-12-22T14:21:30.832Z,13.38
2022-12-22T14:23:12.645Z,13.37
2022-12-22T14:24:54.910Z,13.36
2022-12-22T14:26:26.978Z,13.29
2022-12-22T14:27:58.696Z,13.26
2022-12-22T14:29:30.192Z,13.21
2022-12-22T14:31:02.735Z,13.16
2022-12-22T14:32:38.426Z,13.09
2022-12-22T14:34:23.475Z,13.03
2022-12-22T14:36:13.763Z,12.98
2022-12-22T14:37:45.400Z,12.90
2022-12-22T14:39:24.665Z,12.79
2022-12-22T14:40:57.661Z,12.67
2022-12-22T14:42:29.712Z,12.60
2022-12-22T14:44:01.383Z,12.49
2022-12-22T14:45:33.143Z,12.39
2022-12-22T14:47:20.290Z,12.30
2022-12-22T14:48:51.950Z,12.18
2022-12-22T14:50:24.247Z,12.06
2022-12-22T14:52:00.952Z,11.93
2022-12-22T14:53:56.063Z,11.82
2022-12-22T14:55:28.680Z,11.67
2022-12-22T14:57:10.105Z,11.54
2022-12-22T14:58:47.372Z,11.36
2022-12-22T15:00:24.619Z,11.17
2022-12-22T15:02:00.583Z,10.99
2022-12-22T15:03:36.506Z,10.86
2022-12-22T15:05:14.072Z,10.75
2022-12-22T15:06:48.591Z,10.64
2022-12-22T15:08:38.998Z,10.98
2022-12-22T15:10:15.966Z,11.43
2022-12-22T15:11:52.911Z,11.25
2022-12-22T15:13:24.564Z,10.99
2022-12-22T15:14:56.153Z,10.79
2022-12-22T15:16:28.017Z,10.66
2022-12-22T15:18:00.112Z,10.51
2022-12-22T15:19:34.739Z,10.37
2022-12-22T15:21:07.824Z,10.23
2022-12-22T15:22:39.505Z,10.12
2022-12-22T15:24:17.821Z,9.98
2022-12-22T15:25:49.465Z,9.88
2022-12-22T15:27:21.168Z,9.78
2022-12-22T15:28:52.951Z,9.69
2022-12-22T15:30:29.707Z,9.59
2022-12-22T15:32:02.278Z,9.46
2022-12-22T15:33:34.239Z,9.34
2022-12-22T15:35:15.219Z,9.28
2022-12-22T15:36:46.926Z,9.25
2022-12-22T15:38:19.578Z,9.22
2022-12-22T15:39:51.111Z,9.13
2022-12-22T15:41:22.953Z,9.07
2022-12-22T15:42:54.578Z,9.04
2022-12-22T15:44:26.120Z,9.01
2022-12-22T15:45:57.980Z,8.99
2022-12-22T15:47:29.707Z,8.94
2022-12-22T15:49:01.796Z,8.85
2022-12-22T15:50:38.798Z,8.74
2022-12-22T15:52:10.917Z,8.61
2022-12-22T15:53:42.480Z,8.51
2022-12-22T15:55:14.639Z,8.41
2022-12-22T15:56:46.552Z,8.26
2022-12-22T15:58:19.638Z,8.08
2022-12-22T15:59:51.489Z,7.94
2022-12-22T16:01:24.511Z,7.87
2022-12-22T16:02:56.222Z,7.82
2022-12-22T16:04:28.625Z,7.81
2022-12-22T16:06:00.999Z,7.82
2022-12-22T16:07:32.832Z,7.88
2022-12-22T16:09:06.508Z,7.88
2022-12-22T16:10:38.235Z,7.89
2022-12-22T16:12:11.823Z,7.86
2022-12-22T16:13:43.475Z,7.86
2022-12-22T16:15:15.204Z,7.88
2022-12-22T16:16:48.522Z,7.91
2022-12-22T16:18:20.413Z,7.92
2022-12-22T16:19:52.169Z,7.91
2022-12-22T16:21:25.272Z,7.88
2022-12-22T16:22:56.999Z,7.81
2022-12-22T16:24:30.108Z,7.77
2022-12-22T16:26:02.574Z,7.72
2022-12-22T16:27:35.116Z,7.65
2022-12-22T16:29:08.474Z,7.61
2022-12-22T16:30:40.135Z,7.54
2022-12-22T16:32:21.694Z,7.47
2022-12-22T16:33:53.249Z,7.49
2022-12-22T16:35:25.797Z,7.49
2022-12-22T16:36:57.410Z,7.50
2022-12-22T16:38:29.644Z,7.41
2022-12-22T16:40:02.034Z,7.35
2022-12-22T16:41:33.781Z,7.27
2022-12-22T16:45:18.695Z,7.08
2022-12-22T16:46:50.328Z,6.99
2022-12-22T16:48:22.803Z,6.97
2022-12-22T16:49:54.616Z,6.97
2022-12-22T16:51:37.426Z,6.95
2022-12-22T16:53:09.896Z,6.85
2022-12-22T16:54:41.802Z,6.78
2022-12-22T16:56:18.209Z,6.73
2022-12-22T16:57:50.324Z,6.72
2022-12-22T16:59:22.856Z,6.74
2022-12-22T17:00:54.464Z,6.76
2022-12-22T17:02:27.479Z,6.76
2022-12-22T17:04:02.061Z,6.78
2022-12-22T17:05:44.075Z,6.79
2022-12-22T17:07:16.558Z,6.81
2022-12-22T17:08:48.244Z,6.81
2022-12-22T17:10:20.122Z,6.82
2022-12-22T17:11:51.820Z,6.78
2022-12-22T17:13:23.456Z,6.72
2022-12-22T17:14:55.155Z,6.70
2022-12-22T17:16:26.807Z,6.66
2022-12-22T17:17:58.551Z,6.63
2022-12-22T17:19:30.199Z,6.61
2022-12-22T17:21:01.947Z,6.57
2022-12-22T17:22:33.712Z,6.57
2022-12-22T17:24:06.056Z,6.60
2022-12-22T17:25:37.712Z,6.64
2022-12-22T17:27:10.432Z,6.65
2022-12-22T17:28:42.477Z,6.68
2022-12-22T17:30:18.371Z,6.70
2022-12-22T17:31:51.174Z,6.69
2022-12-22T17:33:22.940Z,6.66
2022-12-22T17:34:54.760Z,6.66
2022-12-22T17:36:28.800Z,6.63
2022-12-22T17:38:00.617Z,6.58
2022-12-22T17:39:34.196Z,6.49
2022-12-22T17:41:05.969Z,6.40
2022-12-22T17:42:37.623Z,6.30
2022-12-22T17:44:20.105Z,6.26
2022-12-22T17:45:52.535Z,6.22
2022-12-22T17:47:32.278Z,6.23
2022-12-22T17:49:06.457Z,6.23
2022-12-22T17:50:38.476Z,6.32
2022-12-22T17:52:30.735Z,6.40
2022-12-22T17:54:02.425Z,6.41
2022-12-22T17:56:07.039Z,6.41
2022-12-22T17:57:27.282Z,6.39
2022-12-22T17:58:59.377Z,6.40
2022-12-22T18:00:30.988Z,6.38
2022-12-22T18:02:02.817Z,6.37
2022-12-22T18:03:35.313Z,6.36
2022-12-22T18:05:11.574Z,6.32
2022-12-22T18:06:43.229Z,6.28
2022-12-22T18:08:16.575Z,6.25
2022-12-22T18:09:48.269Z,6.27
2022-12-22T18:11:20.123Z,6.25
2022-12-22T18:12:52.297Z,6.19
2022-12-22T18:14:24.021Z,6.16
2022-12-22T18:15:56.460Z,6.11
2022-12-22T18:17:35.090Z,6.06
2022-12-22T18:19:07.481Z,5.97
2022-12-22T18:20:39.138Z,5.94
2022-12-22T18:22:14.874Z,5.90
2022-12-22T18:23:50.274Z,5.90
2022-12-22T18:25:23.285Z,5.87
2022-12-22T18:26:54.890Z,5.85
2022-12-22T18:28:26.594Z,5.81
2022-12-22T18:29:58.624Z,5.81
2022-12-22T18:31:30.586Z,5.78
2022-12-22T18:33:02.221Z,5.77
2022-12-22T18:34:33.770Z,5.75
2022-12-22T18:36:05.773Z,5.72
2022-12-22T18:37:37.454Z,5.74
2022-12-22T18:39:16.765Z,5.72
2022-12-22T18:40:48.767Z,5.75
2022-12-22T18:42:21.487Z,5.74
2022-12-22T18:43:53.259Z,5.75
2022-12-22T18:45:26.939Z,5.73
2022-12-22T18:46:58.513Z,5.71
2022-12-22T18:48:30.326Z,5.71
2022-12-22T18:50:03.895Z,5.70
2022-12-22T18:51:36.235Z,5.67
2022-12-22T18:53:24.961Z,5.69
2022-12-22T18:54:56.636Z,5.67
2022-12-22T18:56:28.573Z,5.64
2022-12-22T18:58:00.230Z,5.63
2022-12-22T18:59:33.115Z,5.58
2022-12-22T19:01:05.073Z,5.58
2022-12-22T19:02:36.768Z,5.54
2022-12-22T19:04:08.536Z,5.53
2022-12-22T19:05:40.984Z,5.53
2022-12-22T19:07:15.879Z,5.51
2022-12-22T19:08:48.409Z,5.47
2022-12-22T19:10:38.902Z,5.44
2022-12-22T19:12:12.345Z,5.43
2022-12-22T19:13:47.476Z,5.43
2022-12-22T19:15:29.167Z,5.40
2022-12-22T19:17:00.740Z,5.35
2022-12-22T19:18:32.494Z,5.30
2022-12-22T19:20:04.394Z,5.30
2022-12-22T19:21:36.127Z,5.32
2022-12-22T19:23:08.464Z,5.33
2022-12-22T19:24:41.501Z,5.28
2022-12-22T19:26:19.068Z,5.24
2022-12-22T19:27:52.024Z,5.21
2022-12-22T19:29:23.584Z,5.21
2022-12-22T19:30:55.956Z,5.19
2022-12-22T19:32:28.489Z,5.17
2022-12-22T19:34:00.823Z,5.14
2022-12-22T19:35:32.376Z,5.11
2022-12-22T19:37:04.125Z,5.10
2022-12-22T19:38:39.489Z,5.06
2022-12-22T19:40:12.111Z,5.04
2022-12-22T19:41:43.998Z,5.01
2022-12-22T19:43:15.670Z,4.97
2022-12-22T19:44:47.458Z,4.91
2022-12-22T19:46:19.096Z,4.90
2022-12-22T19:47:50.838Z,4.88
2022-12-22T19:49:25.251Z,4.90
2022-12-22T19:50:57.086Z,4.85
2022-12-22T19:52:28.636Z,4.82
2022-12-22T19:54:00.246Z,4.86
2022-12-22T19:55:31.922Z,4.85
2022-12-22T19:57:03.775Z,4.80
2022-12-22T19:58:38.471Z,4.82
2022-12-22T20:00:20.104Z,4.82
2022-12-22T20:01:52.057Z,4.83
2022-12-22T20:03:24.703Z,4.80
2022-12-22T20:04:56.945Z,4.75
2022-12-22T20:06:28.510Z,4.74
2022-12-22T20:08:00.567Z,4.72
2022-12-22T20:09:32.371Z,4.72
2022-12-22T20:11:04.204Z,4.71
2022-12-22T20:12:36.760Z,4.71
2022-12-22T20:14:11.440Z,4.67
2022-12-22T20:15:43.214Z,4.67
2022-12-22T20:17:15.290Z,4.69
2022-12-22T20:18:46.940Z,4.69
2022-12-22T20:20:19.682Z,4.65
2022-12-22T20:21:51.597Z,4.61
2022-12-22T20:23:24.132Z,4.57
2022-12-22T20:24:55.997Z,4.57
2022-12-22T20:26:28.055Z,4.55
2022-12-22T20:27:59.735Z,4.51
2022-12-22T20:29:31.338Z,4.49
2022-12-22T20:31:03.123Z,4.47
2022-12-22T20:32:34.713Z,4.46
2022-12-22T20:34:07.613Z,4.49
2022-12-22T20:35:39.319Z,4.47
2022-12-22T20:37:14.664Z,4.44
2022-12-22T20:38:47.095Z,4.43
2022-12-22T20:40:24.876Z,4.40
2022-12-22T20:41:56.900Z,4.42
2022-12-22T20:43:28.930Z,4.41
2022-12-22T20:45:03.288Z,4.37
2022-12-22T20:46:36.281Z,4.35
2022-12-22T20:48:09.848Z,4.31
2022-12-22T20:49:41.815Z,4.27
2022-12-22T20:51:14.645Z,4.22
2022-12-22T20:52:46.491Z,4.18
2022-12-22T20:54:18.156Z,4.20
2022-12-22T20:55:49.989Z,4.19
2022-12-22T20:57:21.745Z,4.18
2022-12-22T20:58:54.148Z,4.20
2022-12-22T21:00:26.648Z,4.16
2022-12-22T21:01:58.959Z,4.20
2022-12-22T21:03:31.153Z,4.19
2022-12-22T21:05:06.011Z,4.17
2022-12-22T21:06:38.302Z,4.15
2022-12-22T21:08:20.441Z,4.15
2022-12-22T21:09:52.728Z,4.15
2022-12-22T21:11:24.726Z,4.14
2022-12-22T21:12:56.487Z,4.15
2022-12-22T21:14:28.181Z,4.19
2022-12-22T21:15:59.855Z,4.19
2022-12-22T21:17:31.556Z,4.14
2022-12-22T21:19:03.896Z,4.13
2022-12-22T21:20:35.624Z,4.10